createdAt,value
2022-10-30T00:01:38.758Z,3.03
2022-10-30T00:04:05.319Z,2.88
2022-10-30T00:06:32.138Z,2.80
2022-10-30T00:09:02.017Z,2.92
2022-10-30T00:11:28.747Z,2.90
2022-10-30T00:13:55.339Z,3.10
2022-10-30T00:16:22.109Z,2.90
2022-10-30T00:18:48.642Z,3.05
2022-10-30T00:21:16.152Z,3.05
2022-10-30T00:23:45.644Z,2.73
2022-10-30T00:26:13.890Z,3.08
2022-10-30T00:28:40.745Z,3.03
2022-10-30T00:31:07.372Z,2.90
2022-10-30T00:33:34.240Z,3.08
2022-10-30T00:36:01.273Z,2.80
2022-10-30T00:38:27.960Z,3.30
2022-10-30T00:40:54.621Z,2.83
2022-10-30T00:43:30.977Z,2.92
2022-10-30T00:46:00.513Z,3.00
2022-10-30T00:48:28.033Z,3.27
2022-10-30T00:50:57.475Z,3.30
2022-10-30T00:53:24.267Z,3.10
2022-10-30T00:55:54.018Z,2.70
2022-10-30T00:58:24.082Z,3.10
2022-10-30T01:00:54.783Z,3.13
2022-10-30T01:03:23.250Z,3.20
2022-10-30T01:05:56.847Z,3.20
2022-10-30T01:08:23.471Z,3.03
2022-10-30T01:10:50.724Z,3.03
2022-10-30T01:13:19.434Z,2.93
2022-10-30T01:16:07.553Z,3.25
2022-10-30T01:18:42.911Z,3.03
2022-10-30T01:21:22.981Z,3.05
2022-10-30T01:24:03.354Z,2.60
2022-10-30T01:26:38.769Z,3.40
2022-10-30T01:29:22.359Z,3.25
2022-10-30T01:32:06.698Z,3.17
2022-10-30T01:37:15.913Z,2.97
2022-10-30T01:39:42.501Z,3.33
2022-10-30T01:42:42.192Z,3.15
2022-10-30T01:45:12.106Z,3.20
2022-10-30T01:47:50.089Z,3.03
2022-10-30T01:50:31.423Z,3.00
2022-10-30T01:53:05.166Z,3.63
2022-10-30T01:55:37.296Z,2.88
2022-10-30T01:58:15.343Z,2.78
2022-10-30T02:00:45.568Z,3.15
2022-10-30T02:03:14.345Z,3.38
2022-10-30T02:05:43.925Z,3.13
2022-10-30T02:08:10.616Z,2.90
2022-10-30T02:10:38.155Z,3.03
2022-10-30T02:13:04.919Z,2.90
2022-10-30T02:15:32.153Z,3.28
2022-10-30T02:17:59.216Z,3.00
2022-10-30T02:20:27.426Z,3.33
2022-10-30T02:22:58.014Z,3.35
2022-10-30T02:25:26.234Z,3.10
2022-10-30T02:27:53.016Z,3.00
2022-10-30T02:30:19.571Z,3.00
2022-10-30T02:32:46.407Z,3.15
2022-10-30T02:35:13.263Z,2.90
2022-10-30T02:37:41.090Z,2.85
2022-10-30T02:40:08.925Z,4.00
2022-10-30T02:42:35.575Z,2.90
2022-10-30T02:45:02.225Z,2.90
2022-10-30T02:47:29.166Z,2.75
2022-10-30T02:49:55.609Z,3.40
2022-10-30T02:52:22.115Z,2.92
2022-10-30T02:54:50.033Z,2.97
2022-10-30T02:57:16.520Z,2.78
2022-10-30T02:59:43.114Z,3.42
2022-10-30T03:02:09.679Z,3.22
2022-10-30T03:04:36.191Z,3.08
2022-10-30T03:07:03.103Z,3.70
2022-10-30T03:09:29.562Z,2.78
2022-10-30T03:11:57.363Z,3.10
2022-10-30T03:14:24.045Z,3.25
2022-10-30T03:16:50.592Z,3.00
2022-10-30T03:19:17.282Z,3.33
2022-10-30T03:21:43.772Z,3.45
2022-10-30T03:24:10.389Z,3.13
2022-10-30T03:26:36.922Z,3.38
2022-10-30T03:29:06.515Z,3.13
2022-10-30T03:31:33.494Z,3.37
2022-10-30T03:34:00.188Z,3.08
2022-10-30T03:36:28.356Z,3.40
2022-10-30T03:38:54.866Z,2.80
2022-10-30T03:41:21.377Z,3.30
2022-10-30T03:43:48.093Z,3.03
2022-10-30T03:46:16.337Z,3.30
2022-10-30T03:48:42.828Z,3.25
2022-10-30T03:51:09.345Z,3.45
2022-10-30T03:53:35.853Z,2.92
2022-10-30T03:56:04.514Z,2.63
2022-10-30T03:58:31.051Z,3.40
2022-10-30T04:01:01.225Z,3.13
2022-10-30T04:03:29.348Z,3.75
2022-10-30T04:05:56.007Z,3.40
2022-10-30T04:08:22.497Z,3.17
2022-10-30T04:10:49.023Z,3.50
2022-10-30T04:13:17.262Z,3.45
2022-10-30T04:15:44.096Z,3.47
2022-10-30T04:18:12.803Z,3.33
2022-10-30T04:20:40.688Z,3.10
2022-10-30T04:23:12.249Z,3.50
2022-10-30T04:25:38.833Z,3.40
2022-10-30T04:28:05.471Z,3.08
2022-10-30T04:30:32.279Z,3.65
2022-10-30T04:32:59.464Z,3.27
2022-10-30T04:35:28.766Z,3.67
2022-10-30T04:37:58.213Z,3.80
2022-10-30T04:40:26.473Z,3.78
2022-10-30T04:42:53.524Z,3.40
2022-10-30T04:45:20.263Z,3.50
2022-10-30T04:47:47.286Z,3.95
2022-10-30T04:50:14.777Z,3.42
2022-10-30T04:52:41.596Z,3.20
2022-10-30T04:55:11.332Z,3.30
2022-10-30T04:57:38.237Z,3.50
2022-10-30T05:00:05.985Z,3.38
2022-10-30T05:02:34.980Z,3.40
2022-10-30T05:05:01.550Z,2.97
2022-10-30T05:07:28.098Z,3.83
2022-10-30T05:09:54.665Z,2.97
2022-10-30T05:12:22.547Z,3.35
2022-10-30T05:14:49.007Z,3.30
2022-10-30T05:17:15.633Z,3.47
2022-10-30T05:19:42.169Z,3.38
2022-10-30T05:22:08.702Z,3.40
2022-10-30T05:24:35.385Z,3.40
2022-10-30T05:27:01.996Z,3.60
2022-10-30T05:29:29.833Z,3.47
2022-10-30T05:31:56.317Z,3.70
2022-10-30T05:34:23.061Z,3.33
2022-10-30T05:36:49.529Z,3.30
2022-10-30T05:39:16.093Z,3.90
2022-10-30T05:41:42.615Z,3.50
2022-10-30T05:44:09.133Z,3.45
2022-10-30T05:46:36.970Z,3.43
2022-10-30T05:49:03.471Z,3.35
2022-10-30T05:51:30.036Z,3.10
2022-10-30T05:53:56.495Z,3.20
2022-10-30T05:56:23.181Z,3.20
2022-10-30T05:58:50.026Z,3.37
2022-10-30T06:01:16.623Z,3.13
2022-10-30T06:03:44.626Z,3.40
2022-10-30T06:06:11.621Z,3.53
2022-10-30T06:08:38.156Z,3.38
2022-10-30T06:11:04.664Z,3.60
2022-10-30T06:13:31.135Z,3.42
2022-10-30T06:15:57.674Z,3.45
2022-10-30T06:18:24.488Z,3.22
2022-10-30T06:20:54.756Z,3.50
2022-10-30T06:23:21.283Z,3.80
2022-10-30T06:25:48.023Z,3.28
2022-10-30T06:28:14.588Z,3.55
2022-10-30T06:30:41.493Z,4.10
2022-10-30T06:33:09.649Z,4.00
2022-10-30T06:35:36.307Z,3.37
2022-10-30T06:38:04.506Z,3.58
2022-10-30T06:40:31.029Z,3.65
2022-10-30T06:42:58.151Z,3.85
2022-10-30T06:45:25.485Z,4.15
2022-10-30T06:47:52.144Z,3.57
2022-10-30T06:50:20.718Z,3.50
2022-10-30T06:53:57.100Z,3.65
2022-10-30T06:56:22.714Z,3.47
2022-10-30T06:59:59.690Z,4.05
2022-10-30T07:02:28.409Z,3.60
2022-10-30T07:08:28.436Z,3.72
2022-10-30T07:11:39.135Z,3.55
2022-10-30T07:14:06.131Z,3.90
2022-10-30T07:16:33.122Z,3.60
2022-10-30T07:19:02.250Z,3.35
2022-10-30T07:21:33.670Z,3.67
2022-10-30T07:24:00.335Z,2.92
2022-10-30T07:26:28.556Z,3.45
2022-10-30T07:28:57.353Z,3.63
2022-10-30T07:31:35.190Z,3.67
2022-10-30T07:34:11.187Z,3.88
2022-10-30T07:36:50.675Z,3.45
2022-10-30T07:39:17.817Z,3.53
2022-10-30T07:41:49.923Z,3.23
2022-10-30T07:44:19.596Z,3.30
2022-10-30T07:46:48.009Z,3.50
2022-10-30T07:49:15.336Z,3.60
2022-10-30T07:52:18.046Z,3.70
2022-10-30T07:58:30.343Z,3.40
2022-10-30T08:00:58.740Z,3.70
2022-10-30T08:03:47.858Z,3.70
2022-10-30T08:06:38.963Z,3.30
2022-10-30T08:09:11.740Z,3.73
2022-10-30T08:15:18.564Z,3.58
2022-10-30T08:17:49.761Z,3.20
2022-10-30T08:20:19.091Z,3.58
2022-10-30T08:23:23.352Z,2.93
2022-10-30T08:26:33.241Z,3.45
2022-10-30T08:29:41.641Z,4.22
2022-10-30T08:32:30.408Z,3.63
2022-10-30T08:35:07.373Z,3.28
2022-10-30T08:37:33.863Z,3.83
2022-10-30T08:40:00.516Z,3.47
2022-10-30T08:42:27.017Z,3.60
2022-10-30T08:44:53.554Z,3.30
2022-10-30T08:47:20.123Z,3.55
2022-10-30T08:49:47.224Z,4.10
2022-10-30T08:52:15.164Z,3.72
2022-10-30T08:54:41.655Z,3.40
2022-10-30T08:57:08.832Z,3.30
2022-10-30T08:59:35.520Z,3.28
2022-10-30T09:02:41.192Z,3.20
2022-10-30T09:05:08.655Z,3.17
2022-10-30T09:07:36.715Z,3.50
2022-10-30T09:10:04.410Z,3.65
2022-10-30T09:16:07.689Z,3.27
2022-10-30T09:18:34.440Z,3.28
2022-10-30T09:21:12.422Z,3.80
2022-10-30T09:23:42.914Z,2.70
2022-10-30T09:26:34.080Z,3.40
2022-10-30T09:29:14.605Z,3.20
2022-10-30T09:31:41.196Z,3.05
2022-10-30T09:34:07.868Z,3.33
2022-10-30T09:36:34.400Z,3.53
2022-10-30T09:39:03.110Z,3.10
2022-10-30T09:41:50.093Z,3.40
2022-10-30T09:44:28.285Z,3.30
2022-10-30T09:47:10.145Z,3.05
2022-10-30T09:50:00.572Z,3.47
2022-10-30T09:52:30.859Z,3.25
2022-10-30T09:55:30.922Z,3.17
2022-10-30T09:58:21.834Z,3.42
2022-10-30T10:01:56.501Z,3.15
2022-10-30T10:04:28.765Z,3.15
2022-10-30T10:07:01.992Z,3.30
2022-10-30T10:09:34.518Z,2.90
2022-10-30T10:12:06.654Z,3.28
2022-10-30T10:14:47.125Z,3.17
2022-10-30T10:17:18.414Z,2.83
2022-10-30T10:19:49.773Z,3.17
2022-10-30T10:29:42.406Z,2.92
2022-10-30T10:36:16.572Z,2.83
2022-10-30T10:39:27.828Z,3.23
2022-10-30T10:42:19.338Z,2.97
2022-10-30T10:45:02.667Z,3.20
2022-10-30T10:50:57.892Z,3.03
2022-10-30T10:53:41.767Z,2.93
2022-10-30T10:56:14.590Z,3.08
2022-10-30T11:02:09.977Z,3.08
2022-10-30T11:04:54.061Z,3.17
2022-10-30T11:07:45.861Z,2.77
2022-10-30T11:10:15.264Z,3.22
2022-10-30T11:12:42.041Z,3.22
2022-10-30T11:15:25.946Z,3.00
2022-10-30T11:17:58.971Z,3.20
2022-10-30T11:20:40.364Z,2.80
2022-10-30T11:23:34.591Z,2.70
2022-10-30T11:26:02.466Z,3.35
2022-10-30T11:28:41.819Z,2.83
2022-10-30T11:31:26.494Z,3.55
2022-10-30T11:33:54.738Z,2.93
2022-10-30T11:36:59.661Z,3.63
2022-10-30T11:39:35.121Z,3.17
2022-10-30T11:45:15.880Z,3.53
2022-10-30T11:47:43.356Z,2.70
2022-10-30T11:53:50.720Z,3.85
2022-10-30T11:56:21.292Z,3.30
2022-10-30T11:58:53.101Z,3.53
2022-10-30T12:22:34.661Z,3.17
2022-10-30T12:23:20.537Z,2.80
2022-10-30T12:25:30.896Z,3.10
2022-10-30T12:28:34.850Z,2.72
2022-10-30T12:31:11.743Z,2.95
2022-10-30T12:33:48.902Z,2.97
2022-10-30T12:36:55.776Z,3.05
2022-10-30T12:39:30.270Z,2.95
2022-10-30T12:42:07.520Z,3.20
2022-10-30T12:44:43.688Z,2.90
2022-10-30T12:47:18.114Z,3.00
2022-10-30T12:50:37.402Z,3.05
2022-10-30T12:53:14.163Z,3.40
2022-10-30T12:55:51.305Z,2.80
2022-10-30T12:58:27.702Z,3.38
2022-10-30T13:01:00.576Z,2.73
2022-10-30T13:04:17.695Z,3.15
2022-10-30T13:06:51.892Z,3.08
2022-10-30T13:09:26.778Z,3.08
2022-10-30T13:12:00.981Z,3.38
2022-10-30T13:14:34.952Z,2.83
2022-10-30T13:17:01.563Z,3.25
2022-10-30T13:19:29.708Z,3.08
2022-10-30T13:22:03.492Z,2.80
2022-10-30T13:24:44.351Z,2.88
2022-10-30T13:27:16.338Z,3.10
2022-10-30T13:29:49.845Z,2.88
2022-10-30T13:32:28.171Z,2.97
2022-10-30T13:35:03.269Z,2.92
2022-10-30T13:38:20.416Z,3.08
2022-10-30T13:40:58.431Z,2.80
2022-10-30T13:44:04.485Z,2.75
2022-10-30T13:46:51.050Z,3.05
2022-10-30T13:49:41.122Z,2.88
2022-10-30T13:52:14.689Z,3.00
2022-10-30T13:54:48.357Z,3.23
2022-10-30T13:57:27.055Z,3.03
2022-10-30T14:00:03.031Z,3.10
2022-10-30T14:02:42.901Z,3.15
2022-10-30T14:05:20.792Z,3.35
2022-10-30T14:07:54.024Z,3.03
2022-10-30T14:10:31.517Z,2.80
2022-10-30T14:13:15.485Z,3.03
2022-10-30T14:15:43.747Z,2.75
2022-10-30T14:18:44.371Z,3.15
2022-10-30T14:21:40.636Z,2.70
2022-10-30T14:24:16.770Z,2.88
2022-10-30T14:27:07.032Z,3.00
2022-10-30T14:29:47.893Z,2.70
2022-10-30T14:32:35.824Z,3.03
2022-10-30T14:35:02.511Z,2.73
2022-10-30T14:37:56.206Z,3.05
2022-10-30T14:40:38.745Z,2.90
2022-10-30T14:43:10.103Z,2.83
2022-10-30T14:45:48.187Z,2.67
2022-10-30T14:48:25.786Z,2.43
2022-10-30T14:51:14.284Z,3.10
2022-10-30T14:54:05.417Z,3.17
2022-10-30T14:56:45.712Z,3.28
2022-10-30T14:59:42.382Z,3.13
2022-10-30T15:02:42.247Z,2.90
2022-10-30T15:05:28.934Z,3.40
2022-10-30T15:08:04.382Z,3.00
2022-10-30T15:10:32.721Z,2.80
2022-10-30T15:13:10.137Z,3.17
2022-10-30T15:16:05.073Z,2.63
2022-10-30T15:18:33.619Z,3.08
2022-10-30T15:21:07.601Z,2.85
2022-10-30T15:23:36.439Z,2.70
2022-10-30T15:26:09.736Z,3.30
2022-10-30T15:28:38.912Z,2.63
2022-10-30T15:31:07.591Z,3.22
2022-10-30T15:33:36.438Z,2.92
2022-10-30T15:36:03.800Z,2.85
2022-10-30T15:38:33.138Z,2.53
2022-10-30T15:41:02.279Z,2.40
2022-10-30T15:43:31.281Z,3.22
2022-10-30T15:45:57.923Z,2.80
2022-10-30T15:48:28.013Z,3.08
2022-10-30T15:51:00.700Z,2.60
2022-10-30T15:53:34.918Z,3.17
2022-10-30T15:56:02.236Z,2.88
2022-10-30T15:58:31.362Z,3.25
2022-10-30T16:00:59.869Z,3.33
2022-10-30T16:03:27.317Z,2.72
2022-10-30T16:06:06.173Z,2.47
2022-10-30T16:08:43.327Z,2.70
2022-10-30T16:11:10.277Z,2.70
2022-10-30T16:13:37.158Z,2.80
2022-10-30T16:16:04.449Z,2.85
2022-10-30T16:18:33.165Z,3.23
2022-10-30T16:21:06.702Z,2.65
2022-10-30T16:23:39.971Z,2.60
2022-10-30T16:26:07.454Z,2.53
2022-10-30T16:28:37.129Z,2.70
2022-10-30T16:31:06.569Z,2.47
2022-10-30T16:33:35.349Z,2.78
2022-10-30T16:36:03.859Z,2.80
2022-10-30T16:38:34.845Z,2.38
2022-10-30T16:41:04.809Z,2.53
2022-10-30T16:43:32.707Z,2.57
2022-10-30T16:46:35.366Z,2.92
2022-10-30T16:49:07.728Z,2.63
2022-10-30T16:51:34.636Z,2.58
2022-10-30T16:54:02.029Z,2.35
2022-10-30T16:56:32.037Z,2.60
2022-10-30T16:59:06.775Z,2.60
2022-10-30T17:01:34.159Z,3.03
2022-10-30T17:04:01.263Z,2.35
2022-10-30T17:07:22.164Z,2.80
2022-10-30T17:09:50.838Z,2.90
2022-10-30T17:12:32.511Z,2.60
2022-10-30T17:15:10.896Z,2.67
2022-10-30T17:17:39.480Z,3.15
2022-10-30T17:20:28.255Z,2.92
2022-10-30T17:23:07.261Z,2.67
2022-10-30T17:25:37.173Z,3.40
2022-10-30T17:28:05.645Z,3.28
2022-10-30T17:30:35.790Z,3.25
2022-10-30T17:33:21.882Z,2.95
2022-10-30T17:35:48.663Z,3.80
2022-10-30T17:38:15.255Z,3.33
2022-10-30T17:40:41.837Z,3.20
2022-10-30T17:43:12.020Z,3.53
2022-10-30T17:45:39.591Z,3.75
2022-10-30T17:48:12.707Z,3.50
2022-10-30T17:50:39.275Z,3.65
2022-10-30T17:53:05.897Z,3.30
2022-10-30T17:55:34.905Z,3.25
2022-10-30T17:58:01.599Z,4.28
2022-10-30T18:00:47.612Z,3.37
2022-10-30T18:03:14.619Z,3.38
2022-10-30T18:06:15.316Z,3.30
2022-10-30T18:08:45.068Z,2.95
2022-10-30T18:11:25.097Z,3.30
2022-10-30T18:13:53.013Z,3.00
2022-10-30T18:16:21.367Z,3.35
2022-10-30T18:18:49.008Z,3.05
2022-10-30T18:21:17.024Z,3.20
2022-10-30T18:23:52.285Z,3.25
2022-10-30T18:26:21.254Z,2.80
2022-10-30T18:28:50.136Z,3.17
2022-10-30T18:31:18.988Z,2.85
2022-10-30T18:33:49.228Z,3.38
2022-10-30T18:36:17.934Z,3.30
2022-10-30T18:38:44.984Z,3.30
2022-10-30T18:41:16.045Z,3.05
2022-10-30T18:43:46.592Z,3.13
2022-10-30T18:46:16.080Z,3.00
2022-10-30T18:48:43.279Z,3.10
2022-10-30T18:51:16.230Z,3.17
2022-10-30T18:53:42.999Z,2.90
2022-10-30T18:56:10.323Z,3.10
2022-10-30T18:58:36.971Z,3.47
2022-10-30T19:01:12.596Z,3.10
2022-10-30T19:03:40.546Z,2.80
2022-10-30T19:06:11.327Z,2.88
2022-10-30T19:08:39.469Z,3.67
2022-10-30T19:11:06.389Z,3.30
2022-10-30T19:13:34.093Z,2.85
2022-10-30T19:16:01.122Z,2.83
2022-10-30T19:18:38.937Z,3.00
2022-10-30T19:21:09.117Z,3.03
2022-10-30T19:23:41.224Z,3.60
2022-10-30T19:26:08.209Z,2.92
2022-10-30T19:28:35.739Z,2.83
2022-10-30T19:31:06.444Z,2.95
2022-10-30T19:33:33.008Z,3.70
2022-10-30T19:36:04.045Z,3.25
2022-10-30T19:38:31.900Z,2.88
2022-10-30T19:41:00.937Z,2.87
2022-10-30T19:43:27.647Z,3.35
2022-10-30T19:45:56.236Z,3.05
2022-10-30T19:48:55.603Z,2.90
2022-10-30T19:51:10.675Z,3.47
2022-10-30T19:53:38.198Z,2.93
2022-10-30T19:56:09.955Z,3.15
2022-10-30T19:58:37.278Z,3.13
2022-10-30T20:01:04.923Z,3.40
2022-10-30T20:03:32.827Z,3.08
2022-10-30T20:06:01.091Z,3.77
2022-10-30T20:08:28.060Z,3.72
2022-10-30T20:10:56.215Z,3.83
2022-10-30T20:13:25.780Z,3.65
2022-10-30T20:15:54.079Z,3.58
2022-10-30T20:18:22.292Z,3.50
2022-10-30T20:20:51.380Z,3.42
2022-10-30T20:23:20.883Z,3.97
2022-10-30T20:25:59.766Z,3.40
2022-10-30T20:28:30.806Z,3.42
2022-10-30T20:30:57.976Z,3.30
2022-10-30T20:33:25.240Z,3.35
2022-10-30T20:35:53.140Z,3.15
2022-10-30T20:38:21.689Z,3.20
2022-10-30T20:40:49.333Z,3.35
2022-10-30T20:43:18.500Z,3.50
2022-10-30T20:45:46.680Z,3.28
2022-10-30T20:48:13.709Z,3.92
2022-10-30T20:50:41.165Z,3.67
2022-10-30T20:53:11.570Z,3.65
2022-10-30T20:55:39.591Z,3.40
2022-10-30T20:58:08.671Z,3.20
2022-10-30T21:00:35.409Z,3.83
2022-10-30T21:03:04.067Z,3.08
2022-10-30T21:05:48.812Z,3.72
2022-10-30T21:08:15.997Z,3.50
2022-10-30T21:10:42.827Z,3.40
2022-10-30T21:13:10.964Z,3.85
2022-10-30T21:15:42.313Z,3.35
2022-10-30T21:18:14.179Z,3.50
2022-10-30T21:20:41.272Z,3.90
2022-10-30T21:23:10.703Z,3.58
2022-10-30T21:25:51.455Z,3.70
2022-10-30T21:28:18.327Z,3.78
2022-10-30T21:30:44.901Z,3.70
2022-10-30T21:33:12.875Z,3.13
2022-10-30T21:35:39.480Z,3.17
2022-10-30T21:38:08.909Z,3.60
2022-10-30T21:40:35.701Z,3.45
2022-10-30T21:43:04.398Z,3.80
2022-10-30T21:45:33.616Z,3.90
2022-10-30T21:48:08.761Z,3.85
2022-10-30T21:50:54.831Z,3.88
2022-10-30T21:53:21.399Z,3.80
2022-10-30T21:55:47.933Z,3.63
2022-10-30T21:58:14.780Z,3.70
2022-10-30T22:00:41.489Z,3.78
2022-10-30T22:03:10.367Z,3.47
2022-10-30T22:05:36.958Z,3.55
2022-10-30T22:08:08.311Z,3.90
2022-10-30T22:10:36.176Z,3.33
2022-10-30T22:13:02.774Z,3.70
2022-10-30T22:15:29.403Z,3.97
2022-10-30T22:17:56.116Z,3.40
2022-10-30T22:20:22.740Z,3.95
2022-10-30T22:22:49.376Z,3.67
2022-10-30T22:25:17.353Z,3.60
2022-10-30T22:27:45.637Z,3.80
2022-10-30T22:30:13.395Z,4.03
2022-10-30T22:32:40.349Z,3.80
2022-10-30T22:35:07.801Z,3.60
2022-10-30T22:37:34.343Z,3.72
2022-10-30T22:40:00.979Z,3.83
2022-10-30T22:42:28.952Z,3.85
2022-10-30T22:44:55.516Z,3.90
2022-10-30T22:47:22.031Z,4.00
2022-10-30T22:49:48.670Z,4.20
2022-10-30T22:52:15.181Z,3.85
2022-10-30T22:54:41.748Z,4.53
2022-10-30T22:57:08.629Z,4.28
2022-10-30T22:59:37.516Z,4.53
2022-10-30T23:02:04.088Z,4.45
2022-10-30T23:04:31.085Z,4.63
2022-10-30T23:06:57.645Z,4.22
2022-10-30T23:09:24.203Z,4.80
2022-10-30T23:11:50.883Z,4.40
2022-10-30T23:14:17.511Z,4.03
2022-10-30T23:16:45.467Z,4.35
2022-10-30T23:19:12.017Z,4.50
2022-10-30T23:21:38.795Z,4.22
2022-10-30T23:24:06.252Z,4.33
2022-10-30T23:26:34.857Z,4.20
2022-10-30T23:29:02.530Z,4.32
2022-10-30T23:31:32.129Z,4.35
2022-10-30T23:34:01.951Z,4.32
2022-10-30T23:36:29.503Z,4.07
2022-10-30T23:38:57.898Z,4.00
2022-10-30T23:41:26.719Z,4.25
2022-10-30T23:43:53.871Z,4.63
2022-10-30T23:46:21.763Z,4.45
2022-10-30T23:48:48.465Z,4.70
2022-10-30T23:51:17.030Z,4.30
2022-10-30T23:53:43.610Z,4.45
2022-10-30T23:56:10.347Z,4.43
2022-10-30T23:58:37.049Z,4.45
